Main page
METAR-TAF:

METAR-TAF

Airports :

Oakland/Troy Airport

Troy, Michigan, United States

latitude: 42-32-35N, longitude: 083-10-40W, elevation: 728 ft

Current weather observation

The report was made 21 minutes ago, at 19:01 UTC
Wind 13 mph from the North with gusts up to 16 mph
Temperature 43°F
Humidity 56%
Pressure 30.24 in. Hg
Visibility: 10 miles
Overcast at a height of 2700 ft

METAR: KVLL 241901Z AUTO 36011G14KT 10SM OVC027 06/M02 A3024 RMK AO2

Time: 15:22 (19:22 UTC)


TAF: missing

Weather observations and forecasts of more than 4000 airports (METAR and TAF reports).

The available stations are represented by yellow and red dots on the map.

Hover mouse over dot to see the name of the station.

Then click to see weather observations and forecasts.

To change the map : click on the green buttons with a black cross to zoom in, on the green button with a dash to zoom out, or on the green arrows for adjacent maps.


METAR-TAF: